KGUP/GUP METAR and TAF weather

Enter ICAO airport designator
Station Type Date Time Source
KGUP METAR 2021/07/30 07:53 UTC NOAA

KGUP 300753Z AUTO 07007KT 10SM CLR 18/13 A3035 RMK AO2 LTG DSNT N AND NE SLP125 T01780133


Station Type Date Time Source
KGUP Decoded METAR 2021/07/30 07:53 UTC NOAA

GALLUP MUNICIPAL AIRPORT, NM, United States (KGUP) 35-31N 108-47W 1971M
Jul 30, 2021 - 03:53 AM EDT / 2021.07.30 0753 UTC
Wind: from the ENE (070 degrees) at 8 MPH (7 KT):0
Visibility: 10 mile(s):0
Sky conditions: clear
Weather: Lightning observed
Temperature: 64.0 F (17.8 C)
Dew Point: 55.9 F (13.3 C)
Relative Humidity: 74%
Pressure (altimeter): 30.35 in. Hg (1027 hPa)
ob: KGUP 300753Z AUTO 07007KT 10SM CLR 18/13 A3035 RMK AO2 LTG DSNT N AND NE SLP125 T01780133
cycle: 8

Station Type Date Time Source
KGUP TAF 2021/07/30 06:33 UTC NOAA

TAF KGUP 300530Z 3006/3106 25006KT P6SM VCTS SCT080CB
FM300800 VRB03KT P6SM SCT200
FM302000 13010KT P6SM VCTS SCT090CB
FM302300 13007KT P6SM VCSH BKN100
FM310200 VRB03KT P6SM BKN100

Example: see airport list